sensor_id;sensor_type;location;lat;lon;timestamp;temperature;humidity
75985;DHT22;65033;44.660;37.758;2023-02-15T00:00:48;27.99;28.13
75985;DHT22;65033;44.660;37.758;2023-02-15T00:01:52;27.99;28.11
75985;DHT22;65033;44.660;37.758;2023-02-15T00:02:55;27.98;28.09
75985;DHT22;65033;44.660;37.758;2023-02-15T00:03:59;27.99;28.07
75985;DHT22;65033;44.660;37.758;2023-02-15T00:05:03;27.98;28.03
75985;DHT22;65033;44.660;37.758;2023-02-15T00:06:06;27.99;28.00
75985;DHT22;65033;44.660;37.758;2023-02-15T00:07:09;27.98;27.99
75985;DHT22;65033;44.660;37.758;2023-02-15T00:08:12;27.97;27.97
75985;DHT22;65033;44.660;37.758;2023-02-15T00:09:15;27.97;27.96
75985;DHT22;65033;44.660;37.758;2023-02-15T00:10:19;27.98;27.96
75985;DHT22;65033;44.660;37.758;2023-02-15T00:11:22;27.96;27.94
75985;DHT22;65033;44.660;37.758;2023-02-15T00:12:45;27.97;27.92
75985;DHT22;65033;44.660;37.758;2023-02-15T00:13:49;27.97;27.88
75985;DHT22;65033;44.660;37.758;2023-02-15T00:14:55;27.96;27.87
75985;DHT22;65033;44.660;37.758;2023-02-15T00:16:01;27.96;27.84
75985;DHT22;65033;44.660;37.758;2023-02-15T00:17:05;27.96;27.85
75985;DHT22;65033;44.660;37.758;2023-02-15T00:18:08;27.96;27.80
75985;DHT22;65033;44.660;37.758;2023-02-15T00:19:13;27.96;27.78
75985;DHT22;65033;44.660;37.758;2023-02-15T00:20:17;27.94;27.78
75985;DHT22;65033;44.660;37.758;2023-02-15T00:21:21;27.95;27.76
75985;DHT22;65033;44.660;37.758;2023-02-15T00:22:25;27.95;27.75
75985;DHT22;65033;44.660;37.758;2023-02-15T00:23:28;27.96;27.71
75985;DHT22;65033;44.660;37.758;2023-02-15T00:24:31;27.95;27.71
75985;DHT22;65033;44.660;37.758;2023-02-15T00:25:35;27.94;27.71
75985;DHT22;65033;44.660;37.758;2023-02-15T00:26:38;27.95;27.70
75985;DHT22;65033;44.660;37.758;2023-02-15T00:27:42;27.95;27.67
75985;DHT22;65033;44.660;37.758;2023-02-15T00:28:45;27.95;27.64
75985;DHT22;65033;44.660;37.758;2023-02-15T00:29:49;27.94;27.61
75985;DHT22;65033;44.660;37.758;2023-02-15T00:30:53;27.93;27.62
75985;DHT22;65033;44.660;37.758;2023-02-15T00:31:56;27.94;27.62
75985;DHT22;65033;44.660;37.758;2023-02-15T00:32:59;27.94;27.62
75985;DHT22;65033;44.660;37.758;2023-02-15T00:34:03;27.94;27.56
75985;DHT22;65033;44.660;37.758;2023-02-15T00:35:07;27.93;27.58
75985;DHT22;65033;44.660;37.758;2023-02-15T00:36:11;27.93;27.59
75985;DHT22;65033;44.660;37.758;2023-02-15T00:37:15;27.91;27.57
75985;DHT22;65033;44.660;37.758;2023-02-15T00:38:22;27.93;27.53
75985;DHT22;65033;44.660;37.758;2023-02-15T00:39:25;27.93;27.51
75985;DHT22;65033;44.660;37.758;2023-02-15T00:40:30;27.93;27.49
75985;DHT22;65033;44.660;37.758;2023-02-15T00:41:33;27.94;27.51
75985;DHT22;65033;44.660;37.758;2023-02-15T00:42:37;27.91;27.50
75985;DHT22;65033;44.660;37.758;2023-02-15T00:43:40;27.90;27.50
75985;DHT22;65033;44.660;37.758;2023-02-15T00:44:43;27.91;27.49
75985;DHT22;65033;44.660;37.758;2023-02-15T00:45:48;27.90;27.49
75985;DHT22;65033;44.660;37.758;2023-02-15T00:46:51;27.91;27.49
75985;DHT22;65033;44.660;37.758;2023-02-15T00:47:55;27.90;27.46
75985;DHT22;65033;44.660;37.758;2023-02-15T00:48:59;27.90;27.44
75985;DHT22;65033;44.660;37.758;2023-02-15T00:50:02;27.91;27.42
75985;DHT22;65033;44.660;37.758;2023-02-15T00:51:05;27.90;27.37
75985;DHT22;65033;44.660;37.758;2023-02-15T00:52:09;27.90;27.36
75985;DHT22;65033;44.660;37.758;2023-02-15T00:53:12;27.91;27.33
75985;DHT22;65033;44.660;37.758;2023-02-15T00:54:16;27.90;27.31
75985;DHT22;65033;44.660;37.758;2023-02-15T00:55:19;27.91;27.29
75985;DHT22;65033;44.660;37.758;2023-02-15T00:56:22;27.90;27.30
75985;DHT22;65033;44.660;37.758;2023-02-15T00:57:25;27.90;27.28
75985;DHT22;65033;44.660;37.758;2023-02-15T00:58:29;27.90;27.29
75985;DHT22;65033;44.660;37.758;2023-02-15T00:59:32;27.90;27.24
75985;DHT22;65033;44.660;37.758;2023-02-15T01:00:36;27.89;27.21
75985;DHT22;65033;44.660;37.758;2023-02-15T01:01:41;27.89;27.23
75985;DHT22;65033;44.660;37.758;2023-02-15T01:02:45;27.91;27.21
75985;DHT22;65033;44.660;37.758;2023-02-15T01:03:48;27.89;27.19
75985;DHT22;65033;44.660;37.758;2023-02-15T01:04:51;27.90;27.16
75985;DHT22;65033;44.660;37.758;2023-02-15T01:05:55;27.91;27.16
75985;DHT22;65033;44.660;37.758;2023-02-15T01:06:58;27.90;27.12
75985;DHT22;65033;44.660;37.758;2023-02-15T01:08:02;27.90;27.13
75985;DHT22;65033;44.660;37.758;2023-02-15T01:09:05;27.90;27.08
75985;DHT22;65033;44.660;37.758;2023-02-15T01:10:08;27.90;27.07
75985;DHT22;65033;44.660;37.758;2023-02-15T01:11:13;27.89;27.05
75985;DHT22;65033;44.660;37.758;2023-02-15T01:12:17;27.88;27.02
75985;DHT22;65033;44.660;37.758;2023-02-15T01:13:22;27.89;27.02
75985;DHT22;65033;44.660;37.758;2023-02-15T01:14:26;27.90;26.99
75985;DHT22;65033;44.660;37.758;2023-02-15T01:15:29;27.89;26.97
75985;DHT22;65033;44.660;37.758;2023-02-15T01:16:34;27.90;26.94
75985;DHT22;65033;44.660;37.758;2023-02-15T01:17:38;27.89;26.93
75985;DHT22;65033;44.660;37.758;2023-02-15T01:18:41;27.90;26.92
75985;DHT22;65033;44.660;37.758;2023-02-15T01:19:45;27.89;26.93
75985;DHT22;65033;44.660;37.758;2023-02-15T01:20:48;27.89;26.88
75985;DHT22;65033;44.660;37.758;2023-02-15T01:21:52;27.89;26.88
75985;DHT22;65033;44.660;37.758;2023-02-15T01:22:56;27.89;26.91
75985;DHT22;65033;44.660;37.758;2023-02-15T01:23:59;27.88;26.89
75985;DHT22;65033;44.660;37.758;2023-02-15T01:25:03;27.87;26.88
75985;DHT22;65033;44.660;37.758;2023-02-15T01:26:06;27.87;26.85
75985;DHT22;65033;44.660;37.758;2023-02-15T01:27:10;27.87;26.87
75985;DHT22;65033;44.660;37.758;2023-02-15T01:28:13;27.86;26.84
75985;DHT22;65033;44.660;37.758;2023-02-15T01:29:16;27.88;26.81
75985;DHT22;65033;44.660;37.758;2023-02-15T01:30:19;27.87;26.80
75985;DHT22;65033;44.660;37.758;2023-02-15T01:31:23;27.86;26.80
75985;DHT22;65033;44.660;37.758;2023-02-15T01:32:26;27.86;26.81
75985;DHT22;65033;44.660;37.758;2023-02-15T01:33:31;27.86;26.81
75985;DHT22;65033;44.660;37.758;2023-02-15T01:34:34;27.86;26.82
75985;DHT22;65033;44.660;37.758;2023-02-15T01:35:37;27.86;26.81
75985;DHT22;65033;44.660;37.758;2023-02-15T01:36:40;27.85;26.82
75985;DHT22;65033;44.660;37.758;2023-02-15T01:37:43;27.85;26.81
75985;DHT22;65033;44.660;37.758;2023-02-15T01:38:47;27.85;26.81
75985;DHT22;65033;44.660;37.758;2023-02-15T01:39:50;27.84;26.77
75985;DHT22;65033;44.660;37.758;2023-02-15T01:40:54;27.85;26.78
75985;DHT22;65033;44.660;37.758;2023-02-15T01:42:21;27.85;26.75
75985;DHT22;65033;44.660;37.758;2023-02-15T01:43:39;27.85;26.71
75985;DHT22;65033;44.660;37.758;2023-02-15T01:44:51;27.84;26.73
75985;DHT22;65033;44.660;37.758;2023-02-15T01:45:54;27.84;26.71
75985;DHT22;65033;44.660;37.758;2023-02-15T01:46:58;27.85;26.70
75985;DHT22;65033;44.660;37.758;2023-02-15T01:48:04;27.84;26.68
75985;DHT22;65033;44.660;37.758;2023-02-15T01:49:14;27.85;26.65
75985;DHT22;65033;44.660;37.758;2023-02-15T01:50:22;27.84;26.66
75985;DHT22;65033;44.660;37.758;2023-02-15T01:51:31;27.84;26.65
75985;DHT22;65033;44.660;37.758;2023-02-15T01:52:37;27.83;26.65
75985;DHT22;65033;44.660;37.758;2023-02-15T01:53:44;27.85;26.63
75985;DHT22;65033;44.660;37.758;2023-02-15T01:54:50;27.83;26.62
75985;DHT22;65033;44.660;37.758;2023-02-15T01:55:57;27.84;26.62
75985;DHT22;65033;44.660;37.758;2023-02-15T01:57:05;27.83;26.62
75985;DHT22;65033;44.660;37.758;2023-02-15T01:58:09;27.83;26.62
75985;DHT22;65033;44.660;37.758;2023-02-15T01:59:16;27.83;26.60
75985;DHT22;65033;44.660;37.758;2023-02-15T02:00:21;27.83;26.56
75985;DHT22;65033;44.660;37.758;2023-02-15T02:01:25;27.83;26.55
75985;DHT22;65033;44.660;37.758;2023-02-15T02:02:32;27.83;26.55
75985;DHT22;65033;44.660;37.758;2023-02-15T02:03:41;27.83;26.52
75985;DHT22;65033;44.660;37.758;2023-02-15T02:04:50;27.83;26.52
75985;DHT22;65033;44.660;37.758;2023-02-15T02:05:53;27.82;26.54
75985;DHT22;65033;44.660;37.758;2023-02-15T02:06:57;27.82;26.53
75985;DHT22;65033;44.660;37.758;2023-02-15T02:08:02;27.81;26.55
75985;DHT22;65033;44.660;37.758;2023-02-15T02:09:06;27.82;26.51
75985;DHT22;65033;44.660;37.758;2023-02-15T02:10:12;27.82;26.50
75985;DHT22;65033;44.660;37.758;2023-02-15T02:11:15;27.81;26.49
75985;DHT22;65033;44.660;37.758;2023-02-15T02:12:22;27.82;26.49
75985;DHT22;65033;44.660;37.758;2023-02-15T02:13:26;27.81;26.50
75985;DHT22;65033;44.660;37.758;2023-02-15T02:14:30;27.80;26.51
75985;DHT22;65033;44.660;37.758;2023-02-15T02:15:40;27.80;26.51
75985;DHT22;65033;44.660;37.758;2023-02-15T02:16:54;27.82;26.49
75985;DHT22;65033;44.660;37.758;2023-02-15T02:18:13;27.82;26.43
75985;DHT22;65033;44.660;37.758;2023-02-15T02:19:46;27.81;26.44
75985;DHT22;65033;44.660;37.758;2023-02-15T02:24:31;27.79;26.43
75985;DHT22;65033;44.660;37.758;2023-02-15T02:27:35;27.78;26.43
75985;DHT22;65033;44.660;37.758;2023-02-15T02:33:42;27.76;26.46
75985;DHT22;65033;44.660;37.758;2023-02-15T02:34:53;27.75;26.43
75985;DHT22;65033;44.660;37.758;2023-02-15T02:36:04;27.75;26.43
75985;DHT22;65033;44.660;37.758;2023-02-15T02:37:14;27.75;26.45
75985;DHT22;65033;44.660;37.758;2023-02-15T02:38:26;27.75;26.42
75985;DHT22;65033;44.660;37.758;2023-02-15T02:39:36;27.75;26.43
75985;DHT22;65033;44.660;37.758;2023-02-15T02:40:52;27.74;26.43
75985;DHT22;65033;44.660;37.758;2023-02-15T02:42:01;27.74;26.46
75985;DHT22;65033;44.660;37.758;2023-02-15T02:43:11;27.74;26.43
75985;DHT22;65033;44.660;37.758;2023-02-15T02:44:22;27.73;26.43
75985;DHT22;65033;44.660;37.758;2023-02-15T02:45:29;27.72;26.44
75985;DHT22;65033;44.660;37.758;2023-02-15T02:46:39;27.73;26.45
75985;DHT22;65033;44.660;37.758;2023-02-15T02:47:47;27.72;26.43
75985;DHT22;65033;44.660;37.758;2023-02-15T02:48:53;27.72;26.44
75985;DHT22;65033;44.660;37.758;2023-02-15T02:49:59;27.73;26.43
75985;DHT22;65033;44.660;37.758;2023-02-15T02:51:03;27.75;26.40
75985;DHT22;65033;44.660;37.758;2023-02-15T02:53:26;27.75;26.41
75985;DHT22;65033;44.660;37.758;2023-02-15T02:54:31;27.74;26.39
75985;DHT22;65033;44.660;37.758;2023-02-15T02:55:40;27.75;26.36
75985;DHT22;65033;44.660;37.758;2023-02-15T02:56:46;27.74;26.36
75985;DHT22;65033;44.660;37.758;2023-02-15T02:57:54;27.75;26.36
75985;DHT22;65033;44.660;37.758;2023-02-15T02:59:01;27.76;26.34
75985;DHT22;65033;44.660;37.758;2023-02-15T03:00:09;27.76;26.33
75985;DHT22;65033;44.660;37.758;2023-02-15T03:01:15;27.76;26.33
75985;DHT22;65033;44.660;37.758;2023-02-15T03:02:25;27.75;26.33
75985;DHT22;65033;44.660;37.758;2023-02-15T03:03:34;27.75;26.33
75985;DHT22;65033;44.660;37.758;2023-02-15T03:04:41;27.75;26.34
75985;DHT22;65033;44.660;37.758;2023-02-15T03:05:47;27.75;26.33
75985;DHT22;65033;44.660;37.758;2023-02-15T03:06:56;27.74;26.32
75985;DHT22;65033;44.660;37.758;2023-02-15T03:08:03;27.76;26.33
75985;DHT22;65033;44.660;37.758;2023-02-15T03:09:11;27.75;26.32
75985;DHT22;65033;44.660;37.758;2023-02-15T03:10:25;27.75;26.31
75985;DHT22;65033;44.660;37.758;2023-02-15T03:11:29;27.75;26.31
75985;DHT22;65033;44.660;37.758;2023-02-15T03:12:35;27.75;26.30
75985;DHT22;65033;44.660;37.758;2023-02-15T03:13:39;27.75;26.30
75985;DHT22;65033;44.660;37.758;2023-02-15T03:14:46;27.76;26.26
75985;DHT22;65033;44.660;37.758;2023-02-15T03:15:52;27.75;26.25
75985;DHT22;65033;44.660;37.758;2023-02-15T03:17:15;27.76;26.26
75985;DHT22;65033;44.660;37.758;2023-02-15T03:18:23;27.75;26.25
75985;DHT22;65033;44.660;37.758;2023-02-15T03:19:30;27.76;26.29
75985;DHT22;65033;44.660;37.758;2023-02-15T03:20:36;27.76;26.28
75985;DHT22;65033;44.660;37.758;2023-02-15T03:21:44;27.76;26.28
75985;DHT22;65033;44.660;37.758;2023-02-15T03:22:55;27.76;26.26
75985;DHT22;65033;44.660;37.758;2023-02-15T03:24:04;27.74;26.26
75985;DHT22;65033;44.660;37.758;2023-02-15T03:25:14;27.75;26.30
75985;DHT22;65033;44.660;37.758;2023-02-15T03:26:21;27.76;26.29
75985;DHT22;65033;44.660;37.758;2023-02-15T03:27:30;27.75;26.27
75985;DHT22;65033;44.660;37.758;2023-02-15T03:28:40;27.76;26.25
75985;DHT22;65033;44.660;37.758;2023-02-15T03:29:46;27.75;26.25
75985;DHT22;65033;44.660;37.758;2023-02-15T03:30:53;27.75;26.26
75985;DHT22;65033;44.660;37.758;2023-02-15T03:32:00;27.75;26.26
75985;DHT22;65033;44.660;37.758;2023-02-15T03:33:05;27.75;26.27
75985;DHT22;65033;44.660;37.758;2023-02-15T03:34:11;27.74;26.26
75985;DHT22;65033;44.660;37.758;2023-02-15T03:35:15;27.74;26.24
75985;DHT22;65033;44.660;37.758;2023-02-15T03:36:22;27.74;26.24
75985;DHT22;65033;44.660;37.758;2023-02-15T03:37:32;27.75;26.18
75985;DHT22;65033;44.660;37.758;2023-02-15T03:38:43;27.76;26.20
75985;DHT22;65033;44.660;37.758;2023-02-15T03:39:51;27.74;26.20
75985;DHT22;65033;44.660;37.758;2023-02-15T03:40:56;27.74;26.21
75985;DHT22;65033;44.660;37.758;2023-02-15T03:42:16;27.73;26.23
75985;DHT22;65033;44.660;37.758;2023-02-15T03:43:26;27.75;26.19
75985;DHT22;65033;44.660;37.758;2023-02-15T03:44:37;27.74;26.19
75985;DHT22;65033;44.660;37.758;2023-02-15T03:45:47;27.73;26.20
75985;DHT22;65033;44.660;37.758;2023-02-15T03:47:03;27.73;26.17
75985;DHT22;65033;44.660;37.758;2023-02-15T03:48:08;27.74;26.17
75985;DHT22;65033;44.660;37.758;2023-02-15T03:49:16;27.74;26.15
75985;DHT22;65033;44.660;37.758;2023-02-15T03:50:23;27.75;26.17
75985;DHT22;65033;44.660;37.758;2023-02-15T03:51:48;27.73;26.14
75985;DHT22;65033;44.660;37.758;2023-02-15T03:52:53;27.73;26.11
75985;DHT22;65033;44.660;37.758;2023-02-15T03:53:59;27.73;26.15
75985;DHT22;65033;44.660;37.758;2023-02-15T03:55:02;27.73;26.11
75985;DHT22;65033;44.660;37.758;2023-02-15T03:56:06;27.73;26.13
75985;DHT22;65033;44.660;37.758;2023-02-15T03:57:14;27.71;26.13
75985;DHT22;65033;44.660;37.758;2023-02-15T03:58:36;27.71;26.08
75985;DHT22;65033;44.660;37.758;2023-02-15T03:59:58;27.70;25.53
75985;DHT22;65033;44.660;37.758;2023-02-15T04:01:27;27.70;25.44
75985;DHT22;65033;44.660;37.758;2023-02-15T04:03:00;27.70;25.43
75985;DHT22;65033;44.660;37.758;2023-02-15T04:04:10;27.68;25.72
75985;DHT22;65033;44.660;37.758;2023-02-15T04:05:15;27.69;25.78
75985;DHT22;65033;44.660;37.758;2023-02-15T04:06:18;27.68;25.82
75985;DHT22;65033;44.660;37.758;2023-02-15T04:07:23;27.68;25.85
75985;DHT22;65033;44.660;37.758;2023-02-15T04:08:26;27.68;25.88
75985;DHT22;65033;44.660;37.758;2023-02-15T04:09:49;27.68;25.88
75985;DHT22;65033;44.660;37.758;2023-02-15T04:11:11;27.68;25.88
75985;DHT22;65033;44.660;37.758;2023-02-15T04:12:14;27.67;25.87
75985;DHT22;65033;44.660;37.758;2023-02-15T04:13:18;27.68;25.88
75985;DHT22;65033;44.660;37.758;2023-02-15T04:14:21;27.68;25.90
75985;DHT22;65033;44.660;37.758;2023-02-15T04:15:42;27.67;25.91
75985;DHT22;65033;44.660;37.758;2023-02-15T04:17:05;27.67;25.91
75985;DHT22;65033;44.660;37.758;2023-02-15T04:18:09;27.69;25.94
75985;DHT22;65033;44.660;37.758;2023-02-15T04:19:12;27.67;25.96
75985;DHT22;65033;44.660;37.758;2023-02-15T04:20:34;27.67;26.00
75985;DHT22;65033;44.660;37.758;2023-02-15T04:21:56;27.68;26.03
75985;DHT22;65033;44.660;37.758;2023-02-15T04:23:19;27.69;26.03
75985;DHT22;65033;44.660;37.758;2023-02-15T04:24:41;27.66;26.04
75985;DHT22;65033;44.660;37.758;2023-02-15T04:26:03;27.67;26.06
75985;DHT22;65033;44.660;37.758;2023-02-15T04:27:10;27.67;26.04
75985;DHT22;65033;44.660;37.758;2023-02-15T04:28:13;27.69;26.07
75985;DHT22;65033;44.660;37.758;2023-02-15T04:29:16;27.69;26.04
75985;DHT22;65033;44.660;37.758;2023-02-15T04:30:21;27.70;26.04
75985;DHT22;65033;44.660;37.758;2023-02-15T04:31:25;27.67;26.04
75985;DHT22;65033;44.660;37.758;2023-02-15T04:32:28;27.67;26.07
75985;DHT22;65033;44.660;37.758;2023-02-15T04:33:31;27.67;26.07
75985;DHT22;65033;44.660;37.758;2023-02-15T04:34:34;27.68;26.07
75985;DHT22;65033;44.660;37.758;2023-02-15T04:35:37;27.69;26.06
75985;DHT22;65033;44.660;37.758;2023-02-15T04:36:41;27.69;26.04
75985;DHT22;65033;44.660;37.758;2023-02-15T04:37:44;27.69;26.04
75985;DHT22;65033;44.660;37.758;2023-02-15T04:38:49;27.70;26.06
75985;DHT22;65033;44.660;37.758;2023-02-15T04:39:52;27.68;26.07
75985;DHT22;65033;44.660;37.758;2023-02-15T04:40:55;27.68;26.06
75985;DHT22;65033;44.660;37.758;2023-02-15T04:41:58;27.69;26.06
75985;DHT22;65033;44.660;37.758;2023-02-15T04:43:02;27.68;26.03
75985;DHT22;65033;44.660;37.758;2023-02-15T04:44:05;27.67;25.56
75985;DHT22;65033;44.660;37.758;2023-02-15T04:45:08;27.66;25.14
75985;DHT22;65033;44.660;37.758;2023-02-15T04:46:12;27.65;24.94
75985;DHT22;65033;44.660;37.758;2023-02-15T04:47:15;27.64;24.88
75985;DHT22;65033;44.660;37.758;2023-02-15T04:48:18;27.64;25.07
75985;DHT22;65033;44.660;37.758;2023-02-15T04:49:21;27.65;25.33
75985;DHT22;65033;44.660;37.758;2023-02-15T04:50:24;27.63;25.52
75985;DHT22;65033;44.660;37.758;2023-02-15T04:51:27;27.65;25.58
75985;DHT22;65033;44.660;37.758;2023-02-15T04:52:31;27.66;25.58
75985;DHT22;65033;44.660;37.758;2023-02-15T04:53:34;27.65;25.62
75985;DHT22;65033;44.660;37.758;2023-02-15T04:54:39;27.65;25.69
75985;DHT22;65033;44.660;37.758;2023-02-15T04:55:42;27.66;25.72
75985;DHT22;65033;44.660;37.758;2023-02-15T04:56:46;27.67;25.71
75985;DHT22;65033;44.660;37.758;2023-02-15T04:57:49;27.65;25.75
75985;DHT22;65033;44.660;37.758;2023-02-15T04:58:52;27.67;25.81
75985;DHT22;65033;44.660;37.758;2023-02-15T04:59:55;27.66;25.79
75985;DHT22;65033;44.660;37.758;2023-02-15T05:01:01;27.67;25.81
75985;DHT22;65033;44.660;37.758;2023-02-15T05:02:05;27.67;25.80
75985;DHT22;65033;44.660;37.758;2023-02-15T05:03:09;27.68;25.83
75985;DHT22;65033;44.660;37.758;2023-02-15T05:04:12;27.69;25.84
75985;DHT22;65033;44.660;37.758;2023-02-15T05:05:16;27.69;25.83
75985;DHT22;65033;44.660;37.758;2023-02-15T05:06:20;27.69;25.84
75985;DHT22;65033;44.660;37.758;2023-02-15T05:07:23;27.69;25.85
75985;DHT22;65033;44.660;37.758;2023-02-15T05:08:26;27.69;25.89
75985;DHT22;65033;44.660;37.758;2023-02-15T05:09:29;27.69;25.95
75985;DHT22;65033;44.660;37.758;2023-02-15T05:10:34;27.69;25.94
75985;DHT22;65033;44.660;37.758;2023-02-15T05:11:37;27.69;25.94
75985;DHT22;65033;44.660;37.758;2023-02-15T05:12:40;27.68;25.96
75985;DHT22;65033;44.660;37.758;2023-02-15T05:13:44;27.68;25.98
75985;DHT22;65033;44.660;37.758;2023-02-15T05:14:47;27.69;26.03
75985;DHT22;65033;44.660;37.758;2023-02-15T05:15:51;27.69;26.04
75985;DHT22;65033;44.660;37.758;2023-02-15T05:16:55;27.69;26.10
75985;DHT22;65033;44.660;37.758;2023-02-15T05:17:58;27.68;26.09
75985;DHT22;65033;44.660;37.758;2023-02-15T05:19:01;27.68;26.12
75985;DHT22;65033;44.660;37.758;2023-02-15T05:20:05;27.67;26.12
75985;DHT22;65033;44.660;37.758;2023-02-15T05:21:09;27.70;26.07
75985;DHT22;65033;44.660;37.758;2023-02-15T05:22:12;27.69;25.20
75985;DHT22;65033;44.660;37.758;2023-02-15T05:23:16;27.66;24.95
75985;DHT22;65033;44.660;37.758;2023-02-15T05:24:19;27.65;25.19
75985;DHT22;65033;44.660;37.758;2023-02-15T05:25:46;27.64;25.30
75985;DHT22;65033;44.660;37.758;2023-02-15T05:27:10;27.63;25.56
75985;DHT22;65033;44.660;37.758;2023-02-15T05:28:32;27.63;25.68
75985;DHT22;65033;44.660;37.758;2023-02-15T05:29:36;27.63;25.76
75985;DHT22;65033;44.660;37.758;2023-02-15T05:30:39;27.64;25.78
75985;DHT22;65033;44.660;37.758;2023-02-15T05:31:42;27.64;25.75
75985;DHT22;65033;44.660;37.758;2023-02-15T05:32:50;27.64;25.76
75985;DHT22;65033;44.660;37.758;2023-02-15T05:33:53;27.65;25.78
75985;DHT22;65033;44.660;37.758;2023-02-15T05:34:56;27.65;25.85
75985;DHT22;65033;44.660;37.758;2023-02-15T05:36:00;27.65;25.80
75985;DHT22;65033;44.660;37.758;2023-02-15T05:37:04;27.66;25.77
75985;DHT22;65033;44.660;37.758;2023-02-15T05:38:07;27.65;25.74
75985;DHT22;65033;44.660;37.758;2023-02-15T05:39:10;27.66;25.73
75985;DHT22;65033;44.660;37.758;2023-02-15T05:40:14;27.66;25.86
75985;DHT22;65033;44.660;37.758;2023-02-15T05:41:18;27.66;26.04
75985;DHT22;65033;44.660;37.758;2023-02-15T05:42:21;27.67;25.94
75985;DHT22;65033;44.660;37.758;2023-02-15T05:43:25;27.67;25.91
75985;DHT22;65033;44.660;37.758;2023-02-15T05:44:29;27.68;25.56
75985;DHT22;65033;44.660;37.758;2023-02-15T05:45:32;27.68;25.71
75985;DHT22;65033;44.660;37.758;2023-02-15T05:46:35;27.69;25.76
75985;DHT22;65033;44.660;37.758;2023-02-15T05:47:38;27.70;25.94
75985;DHT22;65033;44.660;37.758;2023-02-15T05:48:41;27.71;26.14
75985;DHT22;65033;44.660;37.758;2023-02-15T05:49:46;27.74;26.40
75985;DHT22;65033;44.660;37.758;2023-02-15T05:50:57;27.74;26.71
75985;DHT22;65033;44.660;37.758;2023-02-15T05:52:01;27.76;26.51
75985;DHT22;65033;44.660;37.758;2023-02-15T05:53:05;27.76;26.60
75985;DHT22;65033;44.660;37.758;2023-02-15T05:54:08;27.79;26.59
75985;DHT22;65033;44.660;37.758;2023-02-15T05:55:11;27.81;26.64
75985;DHT22;65033;44.660;37.758;2023-02-15T05:56:15;27.82;26.70
75985;DHT22;65033;44.660;37.758;2023-02-15T05:57:19;27.84;26.81
75985;DHT22;65033;44.660;37.758;2023-02-15T05:58:23;27.85;26.78
75985;DHT22;65033;44.660;37.758;2023-02-15T05:59:26;27.86;26.81
75985;DHT22;65033;44.660;37.758;2023-02-15T06:00:30;27.88;26.94
75985;DHT22;65033;44.660;37.758;2023-02-15T06:01:34;27.88;26.91
75985;DHT22;65033;44.660;37.758;2023-02-15T06:02:38;27.90;27.01
75985;DHT22;65033;44.660;37.758;2023-02-15T06:03:42;27.93;26.98
75985;DHT22;65033;44.660;37.758;2023-02-15T06:04:45;27.95;26.97
75985;DHT22;65033;44.660;37.758;2023-02-15T06:05:48;27.96;26.95
75985;DHT22;65033;44.660;37.758;2023-02-15T06:06:51;27.97;26.98
75985;DHT22;65033;44.660;37.758;2023-02-15T06:07:54;27.99;26.94
75985;DHT22;65033;44.660;37.758;2023-02-15T06:08:58;28.01;26.89
75985;DHT22;65033;44.660;37.758;2023-02-15T06:10:01;28.03;26.85
75985;DHT22;65033;44.660;37.758;2023-02-15T06:11:04;28.06;26.89
75985;DHT22;65033;44.660;37.758;2023-02-15T06:12:08;28.08;27.04
75985;DHT22;65033;44.660;37.758;2023-02-15T06:13:12;28.10;27.00
75985;DHT22;65033;44.660;37.758;2023-02-15T06:14:16;28.12;26.90
75985;DHT22;65033;44.660;37.758;2023-02-15T06:15:19;28.13;26.92
75985;DHT22;65033;44.660;37.758;2023-02-15T06:16:22;28.14;27.08
75985;DHT22;65033;44.660;37.758;2023-02-15T06:17:25;28.16;26.90
75985;DHT22;65033;44.660;37.758;2023-02-15T06:18:28;28.17;27.00
75985;DHT22;65033;44.660;37.758;2023-02-15T06:19:31;28.19;26.85
75985;DHT22;65033;44.660;37.758;2023-02-15T06:20:35;28.21;26.77
75985;DHT22;65033;44.660;37.758;2023-02-15T06:21:38;28.23;26.78
75985;DHT22;65033;44.660;37.758;2023-02-15T06:22:41;28.23;26.81
75985;DHT22;65033;44.660;37.758;2023-02-15T06:23:44;28.23;26.81
75985;DHT22;65033;44.660;37.758;2023-02-15T06:24:47;28.25;26.82
75985;DHT22;65033;44.660;37.758;2023-02-15T06:25:50;28.27;26.88
75985;DHT22;65033;44.660;37.758;2023-02-15T06:26:54;28.28;26.91
75985;DHT22;65033;44.660;37.758;2023-02-15T06:27:57;28.28;26.84
75985;DHT22;65033;44.660;37.758;2023-02-15T06:29:02;28.32;26.92
75985;DHT22;65033;44.660;37.758;2023-02-15T06:30:06;28.31;26.81
75985;DHT22;65033;44.660;37.758;2023-02-15T06:31:09;28.33;27.00
75985;DHT22;65033;44.660;37.758;2023-02-15T06:32:13;28.37;27.06
75985;DHT22;65033;44.660;37.758;2023-02-15T06:33:16;28.39;26.99
75985;DHT22;65033;44.660;37.758;2023-02-15T06:34:19;28.40;26.85
75985;DHT22;65033;44.660;37.758;2023-02-15T06:35:22;28.41;26.71
75985;DHT22;65033;44.660;37.758;2023-02-15T06:36:25;28.42;26.76
75985;DHT22;65033;44.660;37.758;2023-02-15T06:37:29;28.44;26.72
75985;DHT22;65033;44.660;37.758;2023-02-15T06:38:32;28.46;26.85
75985;DHT22;65033;44.660;37.758;2023-02-15T06:39:35;28.48;26.78
75985;DHT22;65033;44.660;37.758;2023-02-15T06:40:38;28.48;26.75
75985;DHT22;65033;44.660;37.758;2023-02-15T06:41:42;28.50;26.76
75985;DHT22;65033;44.660;37.758;2023-02-15T06:42:45;28.52;26.71
75985;DHT22;65033;44.660;37.758;2023-02-15T06:43:49;28.52;26.81
75985;DHT22;65033;44.660;37.758;2023-02-15T06:44:53;28.56;26.84
75985;DHT22;65033;44.660;37.758;2023-02-15T06:45:58;28.56;26.68
75985;DHT22;65033;44.660;37.758;2023-02-15T06:47:02;28.56;26.78
75985;DHT22;65033;44.660;37.758;2023-02-15T06:48:05;28.58;26.76
75985;DHT22;65033;44.660;37.758;2023-02-15T06:49:11;28.59;26.82
75985;DHT22;65033;44.660;37.758;2023-02-15T06:50:14;28.61;26.81
75985;DHT22;65033;44.660;37.758;2023-02-15T06:51:18;28.61;26.68
75985;DHT22;65033;44.660;37.758;2023-02-15T06:52:21;28.64;26.72
75985;DHT22;65033;44.660;37.758;2023-02-15T06:53:24;28.63;26.62
75985;DHT22;65033;44.660;37.758;2023-02-15T06:54:27;28.64;26.59
75985;DHT22;65033;44.660;37.758;2023-02-15T06:55:30;28.68;26.55
75985;DHT22;65033;44.660;37.758;2023-02-15T06:56:34;28.68;26.62
75985;DHT22;65033;44.660;37.758;2023-02-15T06:57:37;28.69;26.60
75985;DHT22;65033;44.660;37.758;2023-02-15T06:58:41;28.69;26.65
75985;DHT22;65033;44.660;37.758;2023-02-15T06:59:48;28.71;26.73
75985;DHT22;65033;44.660;37.758;2023-02-15T07:00:56;28.73;26.53
75985;DHT22;65033;44.660;37.758;2023-02-15T07:02:00;28.73;26.53